LAP1325 SCEL-SGAS
Flight info
| Callsign | LAP1325 |
|---|---|
| Flight time | 1h 53m |
| Altitude | 37000 |
| Route | GUVOL6B GUVOL UN527 JUA UM529 ARPAS |
| Aircraft | B772/H-SDE1E2E3FGHIJ2J3J4J5M1RWXY/LB1D1 |
Departure
| Time | 2026-05-07 05:12 |
|---|---|
| Airport | Comodoro Arturo Merino Benítez International Airport (SCEL) |
Arrival
| Time | 2026-05-07 07:06 |
|---|---|
| Airport | Silvio Pettirossi International Airport (SGAS) |
| Time | Latitude | Longitude | Altitude | Speed | Heading |
|---|---|---|---|---|---|
| 2026-05-07 04:37 | -33.39883 | -70.78983 | 1570 ft | 0 kts | 188° |
| 2026-05-07 05:00 | -33.39874 | -70.78982 | 1570 ft | 2 kts | 188° |
| 2026-05-07 05:00 | -33.39859 | -70.78979 | 1570 ft | 2 kts | 188° |
| 2026-05-07 05:00 | -33.39847 | -70.78977 | 1570 ft | 0 kts | 188° |
| 2026-05-07 05:01 | -33.39835 | -70.78976 | 1570 ft | 2 kts | 174° |
| 2026-05-07 05:01 | -33.39820 | -70.78980 | 1570 ft | 2 kts | 152° |
| 2026-05-07 05:01 | -33.39808 | -70.78991 | 1570 ft | 2 kts | 133° |
| 2026-05-07 05:01 | -33.39800 | -70.79005 | 1570 ft | 2 kts | 112° |
| 2026-05-07 05:02 | -33.39796 | -70.79022 | 1570 ft | 2 kts | 93° |
| 2026-05-07 05:02 | -33.39796 | -70.79031 | 1570 ft | 1 kts | 88° |
| 2026-05-07 05:04 | -33.39795 | -70.79022 | 1570 ft | 2 kts | 88° |
| 2026-05-07 05:04 | -33.39794 | -70.78997 | 1570 ft | 3 kts | 88° |
| 2026-05-07 05:05 | -33.39793 | -70.78959 | 1570 ft | 5 kts | 90° |
| 2026-05-07 05:05 | -33.39790 | -70.78906 | 1570 ft | 6 kts | 71° |
| 2026-05-07 05:05 | -33.39761 | -70.78854 | 1570 ft | 8 kts | 69° |
| 2026-05-07 05:05 | -33.39740 | -70.78786 | 1570 ft | 8 kts | 40° |
| 2026-05-07 05:06 | -33.39674 | -70.78775 | 1570 ft | 10 kts | 358° |
| 2026-05-07 05:06 | -33.39596 | -70.78779 | 1570 ft | 11 kts | 358° |
| 2026-05-07 05:06 | -33.39510 | -70.78783 | 1570 ft | 12 kts | 358° |
| 2026-05-07 05:06 | -33.39417 | -70.78788 | 1570 ft | 13 kts | 358° |
| 2026-05-07 05:07 | -33.39317 | -70.78793 | 1570 ft | 14 kts | 358° |
| 2026-05-07 05:07 | -33.39212 | -70.78798 | 1570 ft | 15 kts | 358° |
| 2026-05-07 05:07 | -33.39101 | -70.78803 | 1570 ft | 16 kts | 357° |
| 2026-05-07 05:07 | -33.38985 | -70.78810 | 1570 ft | 16 kts | 358° |
| 2026-05-07 05:08 | -33.38866 | -70.78816 | 1570 ft | 17 kts | 358° |
| 2026-05-07 05:08 | -33.38743 | -70.78822 | 1570 ft | 17 kts | 357° |
| 2026-05-07 05:08 | -33.38618 | -70.78829 | 1570 ft | 18 kts | 358° |
| 2026-05-07 05:08 | -33.38488 | -70.78836 | 1570 ft | 18 kts | 358° |
| 2026-05-07 05:09 | -33.38358 | -70.78844 | 1570 ft | 19 kts | 357° |
| 2026-05-07 05:09 | -33.38224 | -70.78851 | 1570 ft | 19 kts | 358° |
| 2026-05-07 05:09 | -33.38087 | -70.78857 | 1570 ft | 19 kts | 357° |
| 2026-05-07 05:09 | -33.37951 | -70.78865 | 1570 ft | 19 kts | 358° |
| 2026-05-07 05:10 | -33.37812 | -70.78873 | 1570 ft | 20 kts | 357° |
| 2026-05-07 05:10 | -33.37696 | -70.78879 | 1570 ft | 10 kts | 358° |
| 2026-05-07 05:10 | -33.37621 | -70.78881 | 1570 ft | 11 kts | 4° |
| 2026-05-07 05:10 | -33.37557 | -70.78828 | 1570 ft | 12 kts | 68° |
| 2026-05-07 05:11 | -33.37557 | -70.78724 | 1570 ft | 12 kts | 112° |
| 2026-05-07 05:11 | -33.37639 | -70.78676 | 1570 ft | 20 kts | 173° |
| 2026-05-07 05:11 | -33.38048 | -70.78651 | 1570 ft | 98 kts | 177° |
| 2026-05-07 05:11 | -33.38983 | -70.78596 | 1571 ft | 167 kts | 177° |
| 2026-05-07 05:12 | -33.40289 | -70.78553 | 1781 ft | 203 kts | 177° |
| 2026-05-07 05:12 | -33.41836 | -70.78471 | 2061 ft | 240 kts | 175° |
| 2026-05-07 05:12 | -33.43465 | -70.78346 | 3283 ft | 228 kts | 176° |
| 2026-05-07 05:12 | -33.45055 | -70.78248 | 3818 ft | 236 kts | 177° |
| 2026-05-07 05:13 | -33.46739 | -70.78199 | 4259 ft | 252 kts | 186° |
| 2026-05-07 05:13 | -33.48445 | -70.78885 | 4735 ft | 264 kts | 214° |
| 2026-05-07 05:13 | -33.49721 | -70.80463 | 5351 ft | 270 kts | 241° |
| 2026-05-07 05:13 | -33.50245 | -70.82607 | 6027 ft | 272 kts | 270° |
| 2026-05-07 05:14 | -33.49998 | -70.84814 | 6718 ft | 273 kts | 283° |
| 2026-05-07 05:14 | -33.49569 | -70.87022 | 7544 ft | 272 kts | 284° |
| 2026-05-07 05:14 | -33.49133 | -70.89206 | 8366 ft | 271 kts | 284° |
| 2026-05-07 05:14 | -33.48695 | -70.91394 | 8903 ft | 276 kts | 284° |
| 2026-05-07 05:15 | -33.48246 | -70.93636 | 9020 ft | 275 kts | 284° |
| 2026-05-07 05:15 | -33.47561 | -70.95752 | 8984 ft | 273 kts | 304° |
| 2026-05-07 05:15 | -33.46209 | -70.97327 | 8993 ft | 275 kts | 328° |
| 2026-05-07 05:15 | -33.44343 | -70.98053 | 9322 ft | 289 kts | 353° |
| 2026-05-07 05:16 | -33.42384 | -70.98093 | 10226 ft | 284 kts | 360° |
| 2026-05-07 05:16 | -33.40369 | -70.97956 | 10703 ft | 296 kts | 1° |
| 2026-05-07 05:16 | -33.38256 | -70.97763 | 11026 ft | 313 kts | 2° |
| 2026-05-07 05:16 | -33.36010 | -70.97551 | 11359 ft | 329 kts | 2° |
| 2026-05-07 05:17 | -33.33697 | -70.97333 | 11683 ft | 344 kts | 2° |
| 2026-05-07 05:17 | -33.31250 | -70.97104 | 12004 ft | 359 kts | 2° |
| 2026-05-07 05:17 | -33.28712 | -70.96867 | 12436 ft | 370 kts | 2° |
| 2026-05-07 05:17 | -33.26120 | -70.96623 | 13095 ft | 375 kts | 2° |
| 2026-05-07 05:18 | -33.23536 | -70.96271 | 13804 ft | 379 kts | 8° |
| 2026-05-07 05:18 | -33.20993 | -70.95394 | 14467 ft | 385 kts | 18° |
| 2026-05-07 05:18 | -33.18577 | -70.93951 | 15047 ft | 394 kts | 29° |
| 2026-05-07 05:18 | -33.16318 | -70.92084 | 15632 ft | 400 kts | 33° |
| 2026-05-07 05:19 | -33.14058 | -70.90136 | 16261 ft | 404 kts | 33° |
| 2026-05-07 05:19 | -33.11749 | -70.88148 | 16808 ft | 409 kts | 33° |
| 2026-05-07 05:19 | -33.09422 | -70.86153 | 17386 ft | 414 kts | 33° |
| 2026-05-07 05:19 | -33.07079 | -70.84147 | 17943 ft | 418 kts | 33° |
| 2026-05-07 05:20 | -33.04712 | -70.82125 | 18495 ft | 422 kts | 33° |
| 2026-05-07 05:20 | -33.02357 | -70.80061 | 19077 ft | 425 kts | 34° |
| 2026-05-07 05:20 | -32.99957 | -70.77919 | 19689 ft | 428 kts | 33° |
| 2026-05-07 05:20 | -32.97565 | -70.75787 | 20216 ft | 434 kts | 33° |
| 2026-05-07 05:21 | -32.95135 | -70.73629 | 20739 ft | 438 kts | 33° |
| 2026-05-07 05:21 | -32.89763 | -70.70364 | 21710 ft | 437 kts | 13° |
| 2026-05-07 05:21 | -32.86821 | -70.69598 | 22260 ft | 434 kts | 3° |
| 2026-05-07 05:22 | -32.83796 | -70.69308 | 22831 ft | 435 kts | 359° |
| 2026-05-07 05:22 | -32.80777 | -70.69104 | 23432 ft | 436 kts | 359° |
| 2026-05-07 05:22 | -32.77727 | -70.68903 | 23975 ft | 438 kts | 358° |
| 2026-05-07 05:22 | -32.74668 | -70.68701 | 24424 ft | 442 kts | 359° |
| 2026-05-07 05:23 | -32.71610 | -70.68500 | 24741 ft | 448 kts | 359° |
| 2026-05-07 05:23 | -32.68491 | -70.68059 | 25147 ft | 457 kts | 6° |
| 2026-05-07 05:23 | -32.65367 | -70.67017 | 25537 ft | 467 kts | 16° |
| 2026-05-07 05:23 | -32.62415 | -70.65402 | 25882 ft | 477 kts | 25° |
| 2026-05-07 05:24 | -32.59618 | -70.63190 | 26153 ft | 488 kts | 35° |
| 2026-05-07 05:24 | -32.57130 | -70.60442 | 26579 ft | 494 kts | 45° |
| 2026-05-07 05:24 | -32.54997 | -70.57195 | 26934 ft | 501 kts | 54° |
| 2026-05-07 05:24 | -32.53195 | -70.53644 | 27160 ft | 508 kts | 58° |
| 2026-05-07 05:25 | -32.51399 | -70.49976 | 27463 ft | 513 kts | 58° |
| 2026-05-07 05:25 | -32.49592 | -70.46325 | 27812 ft | 515 kts | 57° |
| 2026-05-07 05:25 | -32.47743 | -70.42630 | 28137 ft | 518 kts | 57° |
| 2026-05-07 05:25 | -32.45878 | -70.38935 | 28403 ft | 522 kts | 57° |
| 2026-05-07 05:26 | -32.44006 | -70.35252 | 28638 ft | 528 kts | 56° |
| 2026-05-07 05:26 | -32.42099 | -70.31519 | 28910 ft | 531 kts | 56° |
| 2026-05-07 05:26 | -32.40160 | -70.27737 | 29167 ft | 535 kts | 56° |
| 2026-05-07 05:26 | -32.38226 | -70.23976 | 29402 ft | 539 kts | 55° |
| 2026-05-07 05:27 | -32.36307 | -70.20164 | 29629 ft | 545 kts | 59° |
| 2026-05-07 05:27 | -32.34565 | -70.16197 | 29964 ft | 546 kts | 60° |
| 2026-05-07 05:27 | -32.32822 | -70.12149 | 30308 ft | 546 kts | 60° |
| 2026-05-07 05:27 | -32.31103 | -70.08173 | 30660 ft | 546 kts | 60° |
| 2026-05-07 05:28 | -32.29381 | -70.04212 | 30982 ft | 545 kts | 59° |
| 2026-05-07 05:28 | -32.27645 | -70.00236 | 31253 ft | 548 kts | 59° |
| 2026-05-07 05:28 | -32.25887 | -69.96227 | 31537 ft | 548 kts | 59° |
| 2026-05-07 05:28 | -32.24128 | -69.92226 | 31884 ft | 548 kts | 59° |
| 2026-05-07 05:29 | -32.22378 | -69.88253 | 32320 ft | 545 kts | 60° |
| 2026-05-07 05:29 | -32.20625 | -69.84283 | 32712 ft | 543 kts | 59° |
| 2026-05-07 05:29 | -32.18889 | -69.80359 | 33001 ft | 544 kts | 59° |
| 2026-05-07 05:29 | -32.17123 | -69.76376 | 33374 ft | 544 kts | 59° |
| 2026-05-07 05:30 | -32.15378 | -69.72446 | 33776 ft | 543 kts | 60° |
| 2026-05-07 05:30 | -32.13643 | -69.68542 | 34188 ft | 541 kts | 60° |
| 2026-05-07 05:30 | -32.11879 | -69.64580 | 34663 ft | 539 kts | 60° |
| 2026-05-07 05:30 | -32.10167 | -69.60738 | 34931 ft | 535 kts | 60° |
| 2026-05-07 05:31 | -32.08445 | -69.56878 | 35373 ft | 534 kts | 60° |
| 2026-05-07 05:31 | -32.06702 | -69.52979 | 35880 ft | 530 kts | 60° |
| 2026-05-07 05:31 | -32.05014 | -69.49204 | 36436 ft | 528 kts | 60° |
| 2026-05-07 05:31 | -32.03293 | -69.45361 | 36801 ft | 526 kts | 61° |
| 2026-05-07 05:32 | -32.01593 | -69.41569 | 37163 ft | 525 kts | 61° |
| 2026-05-07 05:32 | -31.99878 | -69.37746 | 37303 ft | 525 kts | 61° |
| 2026-05-07 05:32 | -31.98191 | -69.33992 | 37305 ft | 527 kts | 60° |
| 2026-05-07 05:33 | -31.94758 | -69.26361 | 37122 ft | 524 kts | 60° |
| 2026-05-07 05:33 | -31.91336 | -69.18774 | 37203 ft | 526 kts | 59° |
| 2026-05-07 05:34 | -31.87917 | -69.11208 | 37191 ft | 528 kts | 60° |
| 2026-05-07 05:34 | -31.84476 | -69.03608 | 37137 ft | 526 kts | 59° |
| 2026-05-07 05:35 | -31.81032 | -68.96016 | 37113 ft | 522 kts | 59° |
| 2026-05-07 05:35 | -31.77619 | -68.88510 | 37112 ft | 525 kts | 59° |
| 2026-05-07 05:36 | -31.74184 | -68.80971 | 37098 ft | 526 kts | 59° |
| 2026-05-07 05:36 | -31.70716 | -68.73376 | 37040 ft | 531 kts | 59° |
| 2026-05-07 05:37 | -31.67214 | -68.65720 | 37015 ft | 534 kts | 59° |
| 2026-05-07 05:37 | -31.63688 | -68.58030 | 36999 ft | 543 kts | 58° |
| 2026-05-07 05:38 | -31.60097 | -68.50214 | 36976 ft | 551 kts | 58° |
| 2026-05-07 05:38 | -31.56428 | -68.42244 | 36948 ft | 557 kts | 58° |
| 2026-05-07 05:39 | -31.52634 | -68.34332 | 36932 ft | 561 kts | 55° |
| 2026-05-07 05:39 | -31.48757 | -68.26371 | 36918 ft | 562 kts | 55° |
| 2026-05-07 05:40 | -31.44907 | -68.18469 | 36918 ft | 562 kts | 55° |
| 2026-05-07 05:40 | -31.41033 | -68.10529 | 36955 ft | 561 kts | 56° |
| 2026-05-07 05:41 | -31.37167 | -68.02616 | 36964 ft | 560 kts | 55° |
| 2026-05-07 05:41 | -31.33298 | -67.94714 | 36984 ft | 562 kts | 56° |
| 2026-05-07 05:41 | -31.31333 | -67.90707 | 36837 ft | 562 kts | 55° |
| 2026-05-07 05:42 | -31.29396 | -67.86755 | 37040 ft | 564 kts | 55° |
| 2026-05-07 05:42 | -31.27448 | -67.82788 | 36918 ft | 564 kts | 56° |
| 2026-05-07 05:42 | -31.25497 | -67.78816 | 36750 ft | 564 kts | 54° |
| 2026-05-07 05:42 | -31.23541 | -67.74837 | 37027 ft | 561 kts | 54° |
| 2026-05-07 05:43 | -31.21589 | -67.70875 | 36713 ft | 564 kts | 54° |
| 2026-05-07 05:43 | -31.19655 | -67.66949 | 36866 ft | 563 kts | 55° |
| 2026-05-07 05:43 | -31.17700 | -67.62987 | 36881 ft | 565 kts | 54° |
| 2026-05-07 05:44 | -31.13768 | -67.55029 | 36908 ft | 563 kts | 54° |
| 2026-05-07 05:44 | -31.09871 | -67.47160 | 36950 ft | 564 kts | 54° |
| 2026-05-07 05:45 | -31.05925 | -67.39208 | 36938 ft | 567 kts | 54° |
| 2026-05-07 05:45 | -31.01991 | -67.31296 | 36862 ft | 566 kts | 53° |
| 2026-05-07 05:46 | -30.98025 | -67.23336 | 36817 ft | 567 kts | 53° |
| 2026-05-07 05:46 | -30.94069 | -67.15413 | 36775 ft | 566 kts | 53° |
| 2026-05-07 05:47 | -30.90124 | -67.07533 | 36783 ft | 565 kts | 53° |
| 2026-05-07 05:47 | -30.86138 | -66.99590 | 36792 ft | 564 kts | 53° |
| 2026-05-07 05:48 | -30.82192 | -66.91741 | 36794 ft | 564 kts | 52° |
| 2026-05-07 05:48 | -30.78215 | -66.83848 | 36796 ft | 566 kts | 53° |
| 2026-05-07 05:49 | -30.74241 | -66.75970 | 36795 ft | 562 kts | 53° |
| 2026-05-07 05:49 | -30.70282 | -66.68145 | 36793 ft | 564 kts | 53° |
| 2026-05-07 05:50 | -30.66329 | -66.60345 | 36801 ft | 562 kts | 52° |
| 2026-05-07 05:50 | -30.62356 | -66.52519 | 36790 ft | 560 kts | 53° |
| 2026-05-07 05:51 | -30.58395 | -66.44737 | 36783 ft | 561 kts | 52° |
| 2026-05-07 05:51 | -30.54420 | -66.36939 | 36768 ft | 559 kts | 53° |
| 2026-05-07 05:52 | -30.50469 | -66.29208 | 36735 ft | 562 kts | 52° |
| 2026-05-07 05:52 | -30.46471 | -66.21394 | 36716 ft | 559 kts | 52° |
| 2026-05-07 05:53 | -30.42535 | -66.13718 | 36730 ft | 556 kts | 52° |
| 2026-05-07 05:53 | -30.38581 | -66.06022 | 36712 ft | 553 kts | 52° |
| 2026-05-07 05:54 | -30.34647 | -65.98386 | 36717 ft | 556 kts | 52° |
| 2026-05-07 05:54 | -30.30686 | -65.90706 | 36698 ft | 552 kts | 52° |
| 2026-05-07 05:55 | -30.26754 | -65.83098 | 36692 ft | 551 kts | 52° |
| 2026-05-07 05:55 | -30.22811 | -65.75486 | 36684 ft | 551 kts | 52° |
| 2026-05-07 05:56 | -30.18890 | -65.67928 | 36689 ft | 551 kts | 51° |
| 2026-05-07 05:56 | -30.14936 | -65.60326 | 36684 ft | 551 kts | 51° |
| 2026-05-07 05:57 | -30.10990 | -65.52748 | 36684 ft | 550 kts | 51° |
| 2026-05-07 05:57 | -30.07060 | -65.45219 | 36667 ft | 550 kts | 51° |
| 2026-05-07 05:58 | -30.03105 | -65.37656 | 36664 ft | 550 kts | 51° |
| 2026-05-07 05:58 | -29.99135 | -65.30077 | 36639 ft | 549 kts | 51° |
| 2026-05-07 05:59 | -29.95194 | -65.22568 | 36640 ft | 549 kts | 51° |
| 2026-05-07 05:59 | -29.91236 | -65.15041 | 36630 ft | 549 kts | 51° |
| 2026-05-07 06:00 | -29.87274 | -65.07521 | 36643 ft | 549 kts | 51° |
| 2026-05-07 06:00 | -29.83325 | -65.00037 | 36638 ft | 549 kts | 51° |
| 2026-05-07 06:01 | -29.79344 | -64.92498 | 36639 ft | 551 kts | 51° |
| 2026-05-07 06:01 | -29.75387 | -64.85017 | 36649 ft | 549 kts | 51° |
| 2026-05-07 06:02 | -29.71406 | -64.77508 | 36654 ft | 551 kts | 51° |
| 2026-05-07 06:02 | -29.67432 | -64.70026 | 36652 ft | 551 kts | 51° |
| 2026-05-07 06:03 | -29.63444 | -64.62529 | 36652 ft | 552 kts | 51° |
| 2026-05-07 06:03 | -29.59426 | -64.54994 | 36653 ft | 554 kts | 51° |
| 2026-05-07 06:04 | -29.55375 | -64.47466 | 36655 ft | 554 kts | 50° |
| 2026-05-07 06:04 | -29.51317 | -64.39950 | 36660 ft | 556 kts | 50° |
| 2026-05-07 06:05 | -29.47252 | -64.32429 | 36639 ft | 555 kts | 50° |
| 2026-05-07 06:05 | -29.43174 | -64.24897 | 36634 ft | 557 kts | 50° |
| 2026-05-07 06:06 | -29.39139 | -64.17386 | 36647 ft | 557 kts | 50° |
| 2026-05-07 06:06 | -29.35069 | -64.09821 | 36652 ft | 557 kts | 50° |
| 2026-05-07 06:07 | -29.31016 | -64.02300 | 36653 ft | 557 kts | 50° |
| 2026-05-07 06:07 | -29.26953 | -63.94778 | 36663 ft | 558 kts | 50° |
| 2026-05-07 06:08 | -29.22865 | -63.87222 | 36636 ft | 556 kts | 50° |
| 2026-05-07 06:08 | -29.18800 | -63.79724 | 36626 ft | 556 kts | 50° |
| 2026-05-07 06:09 | -29.14712 | -63.72198 | 36618 ft | 557 kts | 50° |
| 2026-05-07 06:09 | -29.10646 | -63.64725 | 36611 ft | 556 kts | 49° |
| 2026-05-07 06:10 | -29.06561 | -63.57233 | 36606 ft | 557 kts | 50° |
| 2026-05-07 06:10 | -29.02466 | -63.49733 | 36614 ft | 558 kts | 50° |
| 2026-05-07 06:11 | -28.98347 | -63.42204 | 36606 ft | 558 kts | 49° |
| 2026-05-07 06:11 | -28.94225 | -63.34679 | 36611 ft | 559 kts | 49° |
| 2026-05-07 06:12 | -28.90100 | -63.27165 | 36602 ft | 559 kts | 49° |
| 2026-05-07 06:12 | -28.85964 | -63.19667 | 36608 ft | 559 kts | 49° |
| 2026-05-07 06:13 | -28.81830 | -63.12189 | 36603 ft | 557 kts | 48° |
| 2026-05-07 06:13 | -28.77691 | -63.04720 | 36612 ft | 560 kts | 49° |
| 2026-05-07 06:14 | -28.73531 | -62.97224 | 36618 ft | 561 kts | 48° |
| 2026-05-07 06:14 | -28.69367 | -62.89733 | 36610 ft | 560 kts | 49° |
| 2026-05-07 06:15 | -28.65184 | -62.82222 | 36617 ft | 563 kts | 49° |
| 2026-05-07 06:15 | -28.60978 | -62.74679 | 36610 ft | 561 kts | 48° |
| 2026-05-07 06:16 | -28.56801 | -62.67210 | 36603 ft | 564 kts | 49° |
| 2026-05-07 06:16 | -28.52592 | -62.59695 | 36611 ft | 562 kts | 48° |
| 2026-05-07 06:17 | -28.48386 | -62.52202 | 36604 ft | 564 kts | 48° |
| 2026-05-07 06:17 | -28.44159 | -62.44683 | 36609 ft | 563 kts | 48° |
| 2026-05-07 06:18 | -28.39924 | -62.37165 | 36615 ft | 564 kts | 48° |
| 2026-05-07 06:18 | -28.35689 | -62.29658 | 36586 ft | 564 kts | 47° |
| 2026-05-07 06:19 | -28.31476 | -62.22204 | 36584 ft | 565 kts | 48° |
| 2026-05-07 06:19 | -28.27242 | -62.14725 | 36585 ft | 563 kts | 47° |
| 2026-05-07 06:20 | -28.22991 | -62.07231 | 36588 ft | 565 kts | 47° |
| 2026-05-07 06:20 | -28.18735 | -61.99740 | 36587 ft | 565 kts | 47° |
| 2026-05-07 06:21 | -28.14475 | -61.92256 | 36591 ft | 565 kts | 47° |
| 2026-05-07 06:21 | -28.10236 | -61.84819 | 36593 ft | 567 kts | 47° |
| 2026-05-07 06:22 | -28.05943 | -61.77296 | 36593 ft | 566 kts | 47° |
| 2026-05-07 06:22 | -27.99538 | -61.66097 | 36602 ft | 566 kts | 47° |
| 2026-05-07 06:23 | -27.95251 | -61.58620 | 36598 ft | 567 kts | 48° |
| 2026-05-07 06:23 | -27.90960 | -61.51147 | 36599 ft | 566 kts | 47° |
| 2026-05-07 06:24 | -27.86687 | -61.43721 | 36613 ft | 569 kts | 48° |
| 2026-05-07 06:24 | -27.82391 | -61.36259 | 36626 ft | 566 kts | 48° |
| 2026-05-07 06:25 | -27.78087 | -61.28799 | 36598 ft | 568 kts | 47° |
| 2026-05-07 06:25 | -27.73786 | -61.21354 | 36602 ft | 566 kts | 47° |
| 2026-05-07 06:26 | -27.69482 | -61.13921 | 36612 ft | 566 kts | 47° |
| 2026-05-07 06:26 | -27.65201 | -61.06536 | 36613 ft | 565 kts | 47° |
| 2026-05-07 06:27 | -27.60888 | -60.99113 | 36618 ft | 565 kts | 47° |
| 2026-05-07 06:27 | -27.56620 | -60.91778 | 36624 ft | 564 kts | 47° |
| 2026-05-07 06:28 | -27.52309 | -60.84388 | 36626 ft | 565 kts | 47° |
| 2026-05-07 06:28 | -27.47980 | -60.76979 | 36630 ft | 566 kts | 47° |
| 2026-05-07 06:29 | -27.43685 | -60.69637 | 36629 ft | 563 kts | 48° |
| 2026-05-07 06:29 | -27.39374 | -60.62284 | 36642 ft | 564 kts | 48° |
| 2026-05-07 06:30 | -27.35060 | -60.54936 | 36637 ft | 564 kts | 48° |
| 2026-05-07 06:30 | -27.30728 | -60.47570 | 36650 ft | 562 kts | 48° |
| 2026-05-07 06:31 | -27.26411 | -60.40244 | 36650 ft | 563 kts | 48° |
| 2026-05-07 06:31 | -27.22098 | -60.32935 | 36626 ft | 564 kts | 47° |
| 2026-05-07 06:32 | -27.17763 | -60.25600 | 36633 ft | 563 kts | 47° |
| 2026-05-07 06:32 | -27.13445 | -60.18307 | 36643 ft | 564 kts | 47° |
| 2026-05-07 06:33 | -27.09105 | -60.10988 | 36656 ft | 563 kts | 48° |
| 2026-05-07 06:33 | -27.04766 | -60.03683 | 36661 ft | 563 kts | 47° |
| 2026-05-07 06:34 | -27.00418 | -59.96375 | 36670 ft | 563 kts | 48° |
| 2026-05-07 06:34 | -26.96120 | -59.89154 | 36669 ft | 548 kts | 48° |
| 2026-05-07 06:35 | -26.94031 | -59.85640 | 36669 ft | 533 kts | 48° |
| 2026-05-07 06:35 | -26.92008 | -59.82246 | 36672 ft | 524 kts | 47° |
| 2026-05-07 06:35 | -26.87925 | -59.75431 | 36681 ft | 531 kts | 48° |
| 2026-05-07 06:36 | -26.83830 | -59.68599 | 36685 ft | 530 kts | 48° |
| 2026-05-07 06:36 | -26.79713 | -59.61735 | 36694 ft | 531 kts | 48° |
| 2026-05-07 06:37 | -26.75604 | -59.54895 | 36694 ft | 531 kts | 48° |
| 2026-05-07 06:37 | -26.71482 | -59.48040 | 36702 ft | 531 kts | 48° |
| 2026-05-07 06:38 | -26.67373 | -59.41215 | 36699 ft | 531 kts | 48° |
| 2026-05-07 06:38 | -26.63275 | -59.34413 | 36526 ft | 522 kts | 48° |
| 2026-05-07 06:39 | -26.61268 | -59.31087 | 35547 ft | 527 kts | 47° |
| 2026-05-07 06:39 | -26.59200 | -59.27674 | 34353 ft | 536 kts | 48° |
| 2026-05-07 06:39 | -26.57090 | -59.24189 | 33336 ft | 541 kts | 48° |
| 2026-05-07 06:39 | -26.54986 | -59.20715 | 32429 ft | 544 kts | 49° |
| 2026-05-07 06:40 | -26.52887 | -59.17251 | 31474 ft | 548 kts | 49° |
| 2026-05-07 06:40 | -26.50730 | -59.13693 | 30466 ft | 553 kts | 49° |
| 2026-05-07 06:40 | -26.48601 | -59.10180 | 29558 ft | 546 kts | 49° |
| 2026-05-07 06:40 | -26.46536 | -59.06765 | 29113 ft | 526 kts | 49° |
| 2026-05-07 06:41 | -26.44516 | -59.03428 | 28792 ft | 508 kts | 49° |
| 2026-05-07 06:41 | -26.42550 | -59.00193 | 28299 ft | 505 kts | 49° |
| 2026-05-07 06:41 | -26.40573 | -58.96947 | 27643 ft | 506 kts | 49° |
| 2026-05-07 06:41 | -26.38595 | -58.93703 | 27020 ft | 505 kts | 50° |
| 2026-05-07 06:42 | -26.36637 | -58.90493 | 26422 ft | 504 kts | 50° |
| 2026-05-07 06:42 | -26.34658 | -58.87248 | 25820 ft | 503 kts | 50° |
| 2026-05-07 06:42 | -26.32708 | -58.84054 | 25188 ft | 501 kts | 50° |
| 2026-05-07 06:42 | -26.30766 | -58.80870 | 24539 ft | 488 kts | 51° |
| 2026-05-07 06:43 | -26.28909 | -58.77824 | 24031 ft | 473 kts | 51° |
| 2026-05-07 06:43 | -26.27092 | -58.74849 | 23479 ft | 460 kts | 51° |
| 2026-05-07 06:43 | -26.25306 | -58.71929 | 22914 ft | 449 kts | 51° |
| 2026-05-07 06:43 | -26.23568 | -58.69090 | 22352 ft | 438 kts | 51° |
| 2026-05-07 06:44 | -26.21868 | -58.66318 | 21907 ft | 440 kts | 51° |
| 2026-05-07 06:44 | -26.20118 | -58.63470 | 21271 ft | 446 kts | 51° |
| 2026-05-07 06:44 | -26.18376 | -58.60634 | 20680 ft | 445 kts | 51° |
| 2026-05-07 06:44 | -26.16633 | -58.57793 | 20121 ft | 442 kts | 52° |
| 2026-05-07 06:45 | -26.14924 | -58.55010 | 19556 ft | 439 kts | 51° |
| 2026-05-07 06:45 | -26.13203 | -58.52209 | 18995 ft | 436 kts | 52° |
| 2026-05-07 06:45 | -26.11517 | -58.49467 | 18435 ft | 433 kts | 52° |
| 2026-05-07 06:45 | -26.09817 | -58.46704 | 17867 ft | 430 kts | 52° |
| 2026-05-07 06:46 | -26.08127 | -58.43959 | 17304 ft | 427 kts | 52° |
| 2026-05-07 06:46 | -26.06460 | -58.41251 | 16731 ft | 424 kts | 52° |
| 2026-05-07 06:46 | -26.04796 | -58.38551 | 16163 ft | 421 kts | 52° |
| 2026-05-07 06:46 | -26.03151 | -58.35885 | 15607 ft | 418 kts | 52° |
| 2026-05-07 06:47 | -26.01528 | -58.33254 | 15040 ft | 414 kts | 52° |
| 2026-05-07 06:47 | -25.99896 | -58.30609 | 14481 ft | 411 kts | 51° |
| 2026-05-07 06:47 | -25.98294 | -58.28014 | 13856 ft | 405 kts | 51° |
| 2026-05-07 06:47 | -25.96742 | -58.25501 | 13330 ft | 387 kts | 51° |
| 2026-05-07 06:48 | -25.95244 | -58.23074 | 12859 ft | 371 kts | 51° |
| 2026-05-07 06:48 | -25.93813 | -58.20759 | 12400 ft | 356 kts | 51° |
| 2026-05-07 06:48 | -25.92441 | -58.18540 | 12062 ft | 340 kts | 50° |
| 2026-05-07 06:48 | -25.91145 | -58.16447 | 11795 ft | 324 kts | 50° |
| 2026-05-07 06:49 | -25.89889 | -58.14421 | 11580 ft | 307 kts | 50° |
| 2026-05-07 06:49 | -25.88720 | -58.12535 | 11352 ft | 294 kts | 49° |
| 2026-05-07 06:49 | -25.87563 | -58.10672 | 11094 ft | 287 kts | 49° |
| 2026-05-07 06:49 | -25.86436 | -58.08860 | 10852 ft | 284 kts | 49° |
| 2026-05-07 06:50 | -25.85327 | -58.07077 | 10565 ft | 283 kts | 49° |
| 2026-05-07 06:50 | -25.84213 | -58.05283 | 10297 ft | 280 kts | 49° |
| 2026-05-07 06:50 | -25.83119 | -58.03521 | 10012 ft | 279 kts | 48° |
| 2026-05-07 06:50 | -25.82005 | -58.01728 | 9688 ft | 279 kts | 49° |
| 2026-05-07 06:51 | -25.80911 | -57.99969 | 9425 ft | 277 kts | 48° |
| 2026-05-07 06:51 | -25.79830 | -57.98228 | 9187 ft | 274 kts | 48° |
| 2026-05-07 06:51 | -25.78743 | -57.96481 | 8910 ft | 272 kts | 48° |
| 2026-05-07 06:51 | -25.77681 | -57.94774 | 8656 ft | 270 kts | 48° |
| 2026-05-07 06:52 | -25.76624 | -57.93074 | 8424 ft | 267 kts | 47° |
| 2026-05-07 06:52 | -25.75564 | -57.91373 | 8164 ft | 265 kts | 47° |
| 2026-05-07 06:52 | -25.74518 | -57.89695 | 7903 ft | 263 kts | 47° |
| 2026-05-07 06:52 | -25.73492 | -57.88047 | 7662 ft | 260 kts | 47° |
| 2026-05-07 06:53 | -25.72444 | -57.86425 | 7401 ft | 256 kts | 44° |
| 2026-05-07 06:53 | -25.71341 | -57.84877 | 7136 ft | 254 kts | 43° |
| 2026-05-07 06:53 | -25.70256 | -57.83349 | 6897 ft | 252 kts | 43° |
| 2026-05-07 06:53 | -25.69174 | -57.81807 | 6653 ft | 250 kts | 44° |
| 2026-05-07 06:54 | -25.68115 | -57.80294 | 6397 ft | 249 kts | 43° |
| 2026-05-07 06:54 | -25.67059 | -57.78784 | 6166 ft | 246 kts | 43° |
| 2026-05-07 06:54 | -25.66029 | -57.77311 | 5942 ft | 243 kts | 43° |
| 2026-05-07 06:54 | -25.64988 | -57.75823 | 5684 ft | 241 kts | 43° |
| 2026-05-07 06:55 | -25.63966 | -57.74365 | 5416 ft | 241 kts | 43° |
| 2026-05-07 06:55 | -25.62935 | -57.72892 | 5165 ft | 239 kts | 43° |
| 2026-05-07 06:55 | -25.61920 | -57.71442 | 4935 ft | 236 kts | 43° |
| 2026-05-07 06:55 | -25.60921 | -57.70017 | 4672 ft | 236 kts | 44° |
| 2026-05-07 06:56 | -25.59911 | -57.68575 | 4430 ft | 233 kts | 44° |
| 2026-05-07 06:56 | -25.58924 | -57.67167 | 4186 ft | 232 kts | 43° |
| 2026-05-07 06:56 | -25.57934 | -57.65756 | 3941 ft | 230 kts | 44° |
| 2026-05-07 06:56 | -25.56962 | -57.64370 | 3687 ft | 229 kts | 44° |
| 2026-05-07 06:57 | -25.55995 | -57.62991 | 3493 ft | 225 kts | 44° |
| 2026-05-07 06:57 | -25.55063 | -57.61658 | 3476 ft | 213 kts | 43° |
| 2026-05-07 06:57 | -25.54168 | -57.60382 | 3413 ft | 204 kts | 43° |
| 2026-05-07 06:57 | -25.53191 | -57.59323 | 3168 ft | 195 kts | 27° |
| 2026-05-07 06:58 | -25.51966 | -57.58762 | 2917 ft | 189 kts | 12° |
| 2026-05-07 06:58 | -25.50699 | -57.58430 | 2840 ft | 180 kts | 11° |
| 2026-05-07 06:58 | -25.49520 | -57.58136 | 2788 ft | 168 kts | 11° |
| 2026-05-07 06:58 | -25.48385 | -57.57859 | 2715 ft | 163 kts | 11° |
| 2026-05-07 06:59 | -25.47317 | -57.57598 | 2649 ft | 151 kts | 11° |
| 2026-05-07 06:59 | -25.46309 | -57.57352 | 2612 ft | 145 kts | 11° |
| 2026-05-07 06:59 | -25.45325 | -57.57112 | 2561 ft | 140 kts | 11° |
| 2026-05-07 06:59 | -25.44420 | -57.56891 | 2502 ft | 127 kts | 11° |
| 2026-05-07 07:00 | -25.43580 | -57.56686 | 2461 ft | 118 kts | 11° |
| 2026-05-07 07:00 | -25.42776 | -57.56490 | 2427 ft | 117 kts | 11° |
| 2026-05-07 07:00 | -25.41975 | -57.56295 | 2371 ft | 117 kts | 11° |
| 2026-05-07 07:00 | -25.41171 | -57.56099 | 2316 ft | 117 kts | 11° |
| 2026-05-07 07:01 | -25.40365 | -57.55902 | 2290 ft | 118 kts | 11° |
| 2026-05-07 07:01 | -25.39558 | -57.55706 | 2253 ft | 118 kts | 11° |
| 2026-05-07 07:01 | -25.38751 | -57.55509 | 2214 ft | 119 kts | 11° |
| 2026-05-07 07:01 | -25.37943 | -57.55312 | 2153 ft | 120 kts | 12° |
| 2026-05-07 07:02 | -25.37122 | -57.55112 | 2105 ft | 119 kts | 12° |
| 2026-05-07 07:02 | -25.36301 | -57.54912 | 2066 ft | 119 kts | 12° |
| 2026-05-07 07:02 | -25.35495 | -57.54715 | 2027 ft | 119 kts | 12° |
| 2026-05-07 07:02 | -25.34668 | -57.54514 | 1977 ft | 120 kts | 12° |
| 2026-05-07 07:03 | -25.33853 | -57.54315 | 1954 ft | 120 kts | 12° |
| 2026-05-07 07:03 | -25.33025 | -57.54113 | 1872 ft | 123 kts | 12° |
| 2026-05-07 07:03 | -25.32191 | -57.53911 | 1676 ft | 122 kts | 13° |
| 2026-05-07 07:03 | -25.31359 | -57.53708 | 1509 ft | 123 kts | 13° |
| 2026-05-07 07:04 | -25.30495 | -57.53497 | 1334 ft | 127 kts | 13° |
| 2026-05-07 07:04 | -25.29624 | -57.53285 | 1162 ft | 129 kts | 13° |
| 2026-05-07 07:04 | -25.28740 | -57.53070 | 983 ft | 133 kts | 13° |
| 2026-05-07 07:04 | -25.27788 | -57.52839 | 797 ft | 141 kts | 13° |
| 2026-05-07 07:05 | -25.26835 | -57.52607 | 609 ft | 141 kts | 13° |
| 2026-05-07 07:05 | -25.25875 | -57.52383 | 453 ft | 140 kts | 14° |
| 2026-05-07 07:05 | -25.24937 | -57.52149 | 317 ft | 130 kts | 13° |
| 2026-05-07 07:05 | -25.24151 | -57.51953 | 306 ft | 92 kts | 13° |
| 2026-05-07 07:06 | -25.23704 | -57.51844 | 306 ft | 38 kts | 12° |
| 2026-05-07 07:06 | -25.23550 | -57.51808 | 306 ft | 18 kts | 11° |
| 2026-05-07 07:06 | -25.23420 | -57.51778 | 306 ft | 19 kts | 13° |
| 2026-05-07 07:06 | -25.23287 | -57.51743 | 306 ft | 19 kts | 13° |
| 2026-05-07 07:07 | -25.23153 | -57.51710 | 306 ft | 17 kts | 15° |
| 2026-05-07 07:07 | -25.23077 | -57.51663 | 306 ft | 13 kts | 67° |
| 2026-05-07 07:07 | -25.23079 | -57.51564 | 306 ft | 12 kts | 102° |
| 2026-05-07 07:07 | -25.23136 | -57.51499 | 306 ft | 13 kts | 175° |
| 2026-05-07 07:08 | -25.23234 | -57.51514 | 306 ft | 15 kts | 191° |
| 2026-05-07 07:08 | -25.23342 | -57.51541 | 306 ft | 16 kts | 193° |
| 2026-05-07 07:08 | -25.23458 | -57.51569 | 306 ft | 17 kts | 192° |
| 2026-05-07 07:08 | -25.23583 | -57.51600 | 306 ft | 18 kts | 193° |
| 2026-05-07 07:09 | -25.23715 | -57.51633 | 306 ft | 19 kts | 192° |
| 2026-05-07 07:09 | -25.23854 | -57.51666 | 306 ft | 20 kts | 193° |
| 2026-05-07 07:09 | -25.23931 | -57.51681 | 306 ft | 8 kts | 178° |
| 2026-05-07 07:09 | -25.23991 | -57.51652 | 306 ft | 10 kts | 149° |
| 2026-05-07 07:10 | -25.24042 | -57.51616 | 306 ft | 6 kts | 148° |
| 2026-05-07 07:10 | -25.24089 | -57.51604 | 306 ft | 8 kts | 184° |
| 2026-05-07 07:10 | -25.24145 | -57.51615 | 306 ft | 3 kts | 191° |
| 2026-05-07 07:10 | -25.24180 | -57.51622 | 306 ft | 6 kts | 185° |
| 2026-05-07 07:11 | -25.24210 | -57.51609 | 306 ft | 4 kts | 133° |
| 2026-05-07 07:11 | -25.24225 | -57.51579 | 306 ft | 4 kts | 112° |
| 2026-05-07 07:11 | -25.24229 | -57.51562 | 306 ft | 0 kts | 107° |